Forest Dale, Vermont
Current Conditions -  °F | °C
As of 12:35 PM on Thursday 23 Oct 2014 (Local Time) from K6B0 Reporting Station
Moderate Rain Moderate Rain  
Wind Chill: 37°   Ceiling: 600
Heat Index: 43°   Visibility: 5mi
Dew Point: 43°   Wind: 12mph
Humidity: 100%   Direction: 360°N
Pressure: 29.89"   Gusts: NA
Location:  43.83°N, 73.05°W
Report Text: K6B0 231635Z AUTO 36010KT 5SM RA OVC006 06/06 A2989 RMK AO2 P0002 T00610061
Loading
Personal Weather Stations






























Interactive Weather Map New forecast layout! Learn more

10-Day Weather Forecast

Advertisements
Track Severe Weather on mobile